createdAt,value
2022-08-30T00:01:14.087Z,14.70
2022-08-30T00:03:46.599Z,14.65
2022-08-30T00:06:16.014Z,14.67
2022-08-30T00:08:43.733Z,14.69
2022-08-30T00:11:15.123Z,14.66
2022-08-30T00:13:44.636Z,14.62
2022-08-30T00:16:12.533Z,14.64
2022-08-30T00:18:40.497Z,14.62
2022-08-30T00:21:07.974Z,14.57
2022-08-30T00:23:34.720Z,14.50
2022-08-30T00:26:02.736Z,14.46
2022-08-30T00:28:30.384Z,14.38
2022-08-30T00:30:57.165Z,14.27
2022-08-30T00:33:24.429Z,14.16
2022-08-30T00:35:50.918Z,14.09
2022-08-30T00:38:17.529Z,13.97
2022-08-30T00:40:45.629Z,13.78
2022-08-30T00:43:18.166Z,13.77
2022-08-30T00:45:46.153Z,13.60
2022-08-30T00:48:12.774Z,13.58
2022-08-30T00:50:45.037Z,13.45
2022-08-30T00:53:16.972Z,13.41
2022-08-30T00:55:44.466Z,13.42
2022-08-30T00:58:16.158Z,13.50
2022-08-30T01:00:43.134Z,13.52
2022-08-30T01:03:09.916Z,13.54
2022-08-30T01:05:38.741Z,13.52
2022-08-30T01:08:05.973Z,13.52
2022-08-30T01:10:34.617Z,13.52
2022-08-30T01:13:01.801Z,13.50
2022-08-30T01:15:28.786Z,13.51
2022-08-30T01:17:57.055Z,13.41
2022-08-30T01:20:34.163Z,13.32
2022-08-30T01:23:12.843Z,13.27
2022-08-30T01:25:43.148Z,13.23
2022-08-30T01:28:14.319Z,13.23
2022-08-30T01:30:43.195Z,13.14
2022-08-30T01:33:10.882Z,13.16
2022-08-30T01:35:47.920Z,13.13
2022-08-30T01:38:16.022Z,13.10
2022-08-30T01:40:43.012Z,13.10
2022-08-30T01:43:11.550Z,13.03
2022-08-30T01:45:38.270Z,12.89
2022-08-30T01:48:06.732Z,12.87
2022-08-30T01:50:33.798Z,12.93
2022-08-30T01:53:00.784Z,12.91
2022-08-30T01:55:27.807Z,12.94
2022-08-30T01:57:54.477Z,12.89
2022-08-30T02:00:21.293Z,12.79
2022-08-30T02:02:48.049Z,12.72
2022-08-30T02:05:16.161Z,12.78
2022-08-30T02:07:42.969Z,12.79
2022-08-30T02:10:10.581Z,12.77
2022-08-30T02:12:37.210Z,12.78
2022-08-30T02:15:04.194Z,12.83
2022-08-30T02:17:30.831Z,12.80
2022-08-30T02:19:57.428Z,12.76
2022-08-30T02:22:24.087Z,12.79
2022-08-30T02:24:50.677Z,12.80
2022-08-30T02:27:17.390Z,12.82
2022-08-30T02:29:45.131Z,12.75
2022-08-30T02:32:11.761Z,12.68
2022-08-30T02:34:38.269Z,12.62
2022-08-30T02:37:06.073Z,12.66
2022-08-30T02:39:32.673Z,12.55
2022-08-30T02:41:59.435Z,12.57
2022-08-30T02:44:26.122Z,12.46
2022-08-30T02:46:52.790Z,12.47
2022-08-30T02:49:34.955Z,12.55
2022-08-30T02:52:03.742Z,12.50
2022-08-30T02:54:33.136Z,12.44
2022-08-30T02:57:04.794Z,12.40
2022-08-30T02:59:32.216Z,12.40
2022-08-30T03:01:59.202Z,12.46
2022-08-30T03:04:26.581Z,12.46
2022-08-30T03:06:53.540Z,12.53
2022-08-30T03:09:20.125Z,12.56
2022-08-30T03:11:46.830Z,12.44
2022-08-30T03:14:13.411Z,12.35
2022-08-30T03:16:40.119Z,12.40
2022-08-30T03:19:06.702Z,12.45
2022-08-30T03:21:33.403Z,12.37
2022-08-30T03:24:00.865Z,12.40
2022-08-30T03:26:27.465Z,12.35
2022-08-30T03:28:54.005Z,12.29
2022-08-30T03:31:20.535Z,12.25
2022-08-30T03:33:47.229Z,12.25
2022-08-30T03:36:13.898Z,12.20
2022-08-30T03:38:40.580Z,12.23
2022-08-30T03:41:07.983Z,12.28
2022-08-30T03:43:35.814Z,12.25
2022-08-30T03:46:03.508Z,12.27
2022-08-30T03:48:30.354Z,12.15
2022-08-30T03:50:57.649Z,12.13
2022-08-30T03:53:25.780Z,12.02
2022-08-30T03:55:54.234Z,12.01
2022-08-30T03:58:22.389Z,11.99
2022-08-30T04:00:49.324Z,11.95
2022-08-30T04:03:16.240Z,11.90
2022-08-30T04:05:42.970Z,11.84
2022-08-30T04:08:09.668Z,11.85
2022-08-30T04:10:36.428Z,11.85
2022-08-30T04:13:03.253Z,11.83
2022-08-30T04:15:29.844Z,11.77
2022-08-30T04:17:56.627Z,11.72
2022-08-30T04:20:23.409Z,11.62
2022-08-30T04:22:51.638Z,11.57
2022-08-30T04:25:18.395Z,11.66
2022-08-30T04:27:46.652Z,11.68
2022-08-30T04:30:15.678Z,11.74
2022-08-30T04:32:43.130Z,11.76
2022-08-30T04:35:10.821Z,11.87
2022-08-30T04:37:38.593Z,11.98
2022-08-30T04:40:06.159Z,12.10
2022-08-30T04:42:34.983Z,12.15
2022-08-30T04:45:04.015Z,12.18
2022-08-30T04:47:30.754Z,12.21
2022-08-30T04:49:57.510Z,12.28
2022-08-30T04:52:24.107Z,12.27
2022-08-30T04:54:57.607Z,12.29
2022-08-30T04:57:26.072Z,12.36
2022-08-30T04:59:52.841Z,12.34
2022-08-30T05:02:19.881Z,12.40
2022-08-30T05:05:09.932Z,12.50
2022-08-30T05:07:37.110Z,12.58
2022-08-30T05:10:10.486Z,12.67
2022-08-30T05:12:37.870Z,12.74
2022-08-30T05:15:05.835Z,12.77
2022-08-30T05:17:32.611Z,12.76
2022-08-30T05:20:02.260Z,12.88
2022-08-30T05:22:28.835Z,13.03
2022-08-30T05:24:55.491Z,13.23
2022-08-30T05:27:22.307Z,13.43
2022-08-30T05:29:49.044Z,13.63
2022-08-30T05:32:15.653Z,13.78
2022-08-30T05:34:42.326Z,13.97
2022-08-30T05:37:09.074Z,14.12
2022-08-30T05:39:45.970Z,14.30
2022-08-30T05:42:18.416Z,14.58
2022-08-30T05:44:45.105Z,14.85
2022-08-30T05:47:11.660Z,15.14
2022-08-30T05:49:38.266Z,15.39
2022-08-30T05:52:05.434Z,15.69
2022-08-30T05:54:32.048Z,15.92
2022-08-30T05:56:59.658Z,16.12
2022-08-30T05:59:26.298Z,16.31
2022-08-30T06:01:57.388Z,16.51
2022-08-30T06:04:24.580Z,16.75
2022-08-30T06:06:51.242Z,16.89
2022-08-30T06:09:18.226Z,17.14
2022-08-30T06:11:46.256Z,17.37
2022-08-30T06:14:14.228Z,17.64
2022-08-30T06:16:41.780Z,17.50
2022-08-30T06:19:11.138Z,17.71
2022-08-30T06:21:39.636Z,18.05
2022-08-30T06:24:08.900Z,18.19
2022-08-30T06:26:41.505Z,18.35
2022-08-30T06:29:09.530Z,18.60
2022-08-30T06:31:36.311Z,18.63
2022-08-30T06:34:03.901Z,18.89
2022-08-30T06:36:31.667Z,19.11
2022-08-30T06:39:00.478Z,19.24
2022-08-30T06:41:29.863Z,19.24
2022-08-30T06:43:58.445Z,19.42
2022-08-30T06:46:32.615Z,19.50
2022-08-30T06:49:00.012Z,19.54
2022-08-30T06:51:30.461Z,19.82
2022-08-30T06:53:58.919Z,19.85
2022-08-30T06:56:27.602Z,20.18
2022-08-30T06:58:54.500Z,20.29
2022-08-30T07:01:25.213Z,20.67
2022-08-30T07:03:53.274Z,21.07
2022-08-30T07:06:21.042Z,21.02
2022-08-30T07:08:48.078Z,21.18
2022-08-30T07:11:14.779Z,21.46
2022-08-30T07:13:41.372Z,21.82
2022-08-30T07:16:13.596Z,22.24
2022-08-30T07:18:56.239Z,22.52
2022-08-30T07:21:28.992Z,22.94
2022-08-30T07:23:57.903Z,22.92
2022-08-30T07:26:34.554Z,22.99
2022-08-30T07:29:02.469Z,23.39
2022-08-30T07:31:29.723Z,23.68
2022-08-30T07:33:56.802Z,23.82
2022-08-30T07:36:24.531Z,24.04
2022-08-30T07:38:52.305Z,23.63
2022-08-30T07:41:22.218Z,23.83
2022-08-30T07:43:48.838Z,23.69
2022-08-30T07:46:16.403Z,24.36
2022-08-30T07:48:44.264Z,24.66
2022-08-30T07:51:19.917Z,24.14
2022-08-30T07:53:46.827Z,24.82
2022-08-30T07:56:14.217Z,25.26
2022-08-30T07:58:41.058Z,25.24
2022-08-30T08:01:09.685Z,25.49
2022-08-30T08:03:37.831Z,25.14
2022-08-30T08:06:06.283Z,25.73
2022-08-30T08:08:33.442Z,25.68
2022-08-30T08:11:08.249Z,25.85
2022-08-30T08:13:37.848Z,26.15
2022-08-30T08:16:20.662Z,25.74
2022-08-30T08:18:47.387Z,25.95
2022-08-30T08:21:24.501Z,25.80
2022-08-30T08:23:51.666Z,26.13
2022-08-30T08:26:19.012Z,26.14
2022-08-30T08:28:47.242Z,25.69
2022-08-30T08:31:23.673Z,26.09
2022-08-30T08:33:55.652Z,26.40
2022-08-30T08:36:22.611Z,26.38
2022-08-30T08:38:49.187Z,26.49
2022-08-30T08:41:28.848Z,26.98
2022-08-30T08:43:55.636Z,27.50
2022-08-30T08:46:37.842Z,27.27
2022-08-30T08:49:07.474Z,26.76
2022-08-30T08:51:57.390Z,26.69
2022-08-30T08:54:39.198Z,26.40
2022-08-30T08:57:06.067Z,26.51
2022-08-30T08:59:32.936Z,27.33
2022-08-30T09:02:03.181Z,26.84
2022-08-30T09:04:37.865Z,27.42
2022-08-30T09:07:32.765Z,27.62
2022-08-30T09:10:00.747Z,27.02
2022-08-30T09:12:28.323Z,27.72
2022-08-30T09:15:01.436Z,27.84
2022-08-30T09:17:28.862Z,27.98
2022-08-30T09:19:55.679Z,27.75
2022-08-30T09:22:35.369Z,28.22
2022-08-30T09:25:14.411Z,28.29
2022-08-30T09:27:43.786Z,27.56
2022-08-30T09:30:21.269Z,27.84
2022-08-30T09:33:07.781Z,27.66
2022-08-30T09:35:36.121Z,28.05
2022-08-30T09:38:08.835Z,27.26
2022-08-30T09:40:47.215Z,27.75
2022-08-30T09:43:16.594Z,27.45
2022-08-30T09:45:47.517Z,27.59
2022-08-30T09:48:31.285Z,26.99
2022-08-30T09:51:15.884Z,25.92
2022-08-30T09:54:16.778Z,25.51
2022-08-30T09:56:57.914Z,25.28
2022-08-30T09:59:34.625Z,24.69
2022-08-30T10:02:21.154Z,24.38
2022-08-30T10:04:57.813Z,24.19
2022-08-30T10:07:51.900Z,25.10
2022-08-30T10:10:41.777Z,26.38
2022-08-30T10:13:35.268Z,26.47
2022-08-30T10:16:14.410Z,27.38
2022-08-30T10:18:51.315Z,27.57
2022-08-30T10:21:35.801Z,27.75
2022-08-30T10:24:11.282Z,27.73
2022-08-30T10:26:47.858Z,27.52
2022-08-30T10:29:31.625Z,27.94
2022-08-30T10:32:06.229Z,27.81
2022-08-30T10:34:43.937Z,27.37
2022-08-30T10:37:16.851Z,27.16
2022-08-30T10:39:48.998Z,27.61
2022-08-30T10:42:23.580Z,27.38
2022-08-30T10:45:01.273Z,27.23
2022-08-30T10:47:53.758Z,27.01
2022-08-30T10:50:36.005Z,27.03
2022-08-30T10:53:24.985Z,26.44
2022-08-30T10:56:08.970Z,27.07
2022-08-30T10:58:39.220Z,26.89
2022-08-30T11:01:38.252Z,26.87
2022-08-30T11:04:44.528Z,27.93
2022-08-30T11:07:27.737Z,27.97
2022-08-30T11:10:16.461Z,27.85
2022-08-30T11:12:58.741Z,27.72
2022-08-30T11:15:31.635Z,27.87
2022-08-30T11:18:00.443Z,28.50
2022-08-30T11:20:42.021Z,28.14
2022-08-30T11:23:36.307Z,27.97
2022-08-30T11:26:13.975Z,28.06
2022-08-30T11:28:47.103Z,28.52
2022-08-30T11:31:23.590Z,27.81
2022-08-30T11:33:57.807Z,27.33
2022-08-30T11:36:37.341Z,27.50
2022-08-30T11:39:07.385Z,27.62
2022-08-30T11:41:34.203Z,27.79
2022-08-30T11:44:21.825Z,27.89
2022-08-30T11:47:01.153Z,27.90
2022-08-30T11:49:41.765Z,27.74
2022-08-30T11:52:33.035Z,27.59
2022-08-30T11:55:17.931Z,28.27
2022-08-30T11:58:11.588Z,28.66
2022-08-30T12:00:42.189Z,28.50
2022-08-30T12:03:14.958Z,28.57
2022-08-30T12:05:45.622Z,28.66
2022-08-30T12:08:20.821Z,28.46
2022-08-30T12:10:58.467Z,28.53
2022-08-30T12:13:37.179Z,29.09
2022-08-30T12:16:22.554Z,28.76
2022-08-30T12:19:01.542Z,28.77
2022-08-30T12:21:43.679Z,28.73
2022-08-30T12:24:23.848Z,29.04
2022-08-30T12:26:52.426Z,28.95
2022-08-30T12:29:28.276Z,28.74
2022-08-30T12:31:59.093Z,28.81
2022-08-30T12:34:25.650Z,28.99
2022-08-30T12:36:55.160Z,29.37
2022-08-30T12:39:31.316Z,29.80
2022-08-30T12:42:17.818Z,28.89
2022-08-30T12:44:46.159Z,28.21
2022-08-30T12:47:18.268Z,28.48
2022-08-30T12:49:46.457Z,28.20
2022-08-30T12:52:28.891Z,27.76
2022-08-30T12:55:05.205Z,27.45
2022-08-30T12:58:00.756Z,27.79
2022-08-30T13:00:35.477Z,27.10
2022-08-30T13:03:25.763Z,26.89
2022-08-30T13:05:53.083Z,27.00
2022-08-30T13:08:23.160Z,27.23
2022-08-30T13:10:56.653Z,27.64
2022-08-30T13:13:45.033Z,27.51
2022-08-30T13:16:17.708Z,27.36
2022-08-30T13:18:46.721Z,27.40
2022-08-30T13:21:33.038Z,27.57
2022-08-30T13:24:05.817Z,27.01
2022-08-30T13:26:36.432Z,26.65
2022-08-30T13:29:08.816Z,26.14
2022-08-30T13:31:37.655Z,25.85
2022-08-30T13:34:05.301Z,25.71
2022-08-30T13:36:35.516Z,25.72
2022-08-30T13:39:03.991Z,25.75
2022-08-30T13:41:34.466Z,25.71
2022-08-30T13:44:20.211Z,25.65
2022-08-30T13:46:54.506Z,25.52
2022-08-30T13:49:47.861Z,25.56
2022-08-30T13:52:21.349Z,25.91
2022-08-30T13:54:53.428Z,25.93
2022-08-30T14:00:17.908Z,25.98
2022-08-30T14:02:51.491Z,26.06
2022-08-30T14:05:48.432Z,26.26
2022-08-30T14:11:00.438Z,26.07
2022-08-30T14:13:29.444Z,25.97
2022-08-30T14:18:46.845Z,25.72
2022-08-30T14:21:13.516Z,25.82
2022-08-30T14:23:40.164Z,25.63
2022-08-30T14:26:17.228Z,25.50
2022-08-30T14:28:45.023Z,25.54
2022-08-30T14:31:13.445Z,25.45
2022-08-30T14:33:40.240Z,25.43
2022-08-30T14:36:12.409Z,25.42
2022-08-30T14:38:42.718Z,25.35
2022-08-30T14:41:10.901Z,25.33
2022-08-30T14:43:40.663Z,25.37
2022-08-30T14:46:08.533Z,25.30
2022-08-30T14:48:36.925Z,25.37
2022-08-30T14:51:11.086Z,25.54
2022-08-30T14:53:37.872Z,25.65
2022-08-30T14:56:14.319Z,25.91
2022-08-30T14:58:40.960Z,25.94
2022-08-30T15:01:10.178Z,25.64
2022-08-30T15:03:40.476Z,25.26
2022-08-30T15:06:07.767Z,25.17
2022-08-30T15:08:35.697Z,24.76
2022-08-30T15:11:08.547Z,24.44
2022-08-30T15:13:35.549Z,24.51
2022-08-30T15:16:02.493Z,24.32
2022-08-30T15:18:29.090Z,24.36
2022-08-30T15:20:56.585Z,24.32
2022-08-30T15:23:24.801Z,24.29
2022-08-30T15:25:51.785Z,24.26
2022-08-30T15:28:19.324Z,24.28
2022-08-30T15:30:46.301Z,24.28
2022-08-30T15:33:13.062Z,24.32
2022-08-30T15:35:41.330Z,24.27
2022-08-30T15:38:08.380Z,24.27
2022-08-30T15:40:39.579Z,24.22
2022-08-30T15:43:06.694Z,24.27
2022-08-30T15:45:33.521Z,24.21
2022-08-30T15:48:01.510Z,24.25
2022-08-30T15:50:29.359Z,24.21
2022-08-30T15:52:56.793Z,24.28
2022-08-30T15:55:23.417Z,24.23
2022-08-30T15:57:50.297Z,24.17
2022-08-30T16:00:17.614Z,24.04
2022-08-30T16:02:48.225Z,24.10
2022-08-30T16:05:15.584Z,24.06
2022-08-30T16:07:46.732Z,24.08
2022-08-30T16:10:14.757Z,24.00
2022-08-30T16:12:41.480Z,23.98
2022-08-30T16:15:09.032Z,23.94
2022-08-30T16:17:36.268Z,23.89
2022-08-30T16:20:05.302Z,23.80
2022-08-30T16:22:33.076Z,23.70
2022-08-30T16:24:59.741Z,23.80
2022-08-30T16:27:26.425Z,23.79
2022-08-30T16:29:53.200Z,23.72
2022-08-30T16:32:20.430Z,23.44
2022-08-30T16:34:47.042Z,23.28
2022-08-30T16:37:13.747Z,23.11
2022-08-30T16:39:40.512Z,23.08
2022-08-30T16:42:13.060Z,23.18
2022-08-30T16:44:40.245Z,23.09
2022-08-30T16:47:11.414Z,23.06
2022-08-30T16:49:40.026Z,22.96
2022-08-30T16:52:06.820Z,22.88
2022-08-30T16:54:33.731Z,22.88
2022-08-30T16:57:00.401Z,22.83
2022-08-30T16:59:27.087Z,22.80
2022-08-30T17:01:53.839Z,22.67
2022-08-30T17:04:21.203Z,22.65
2022-08-30T17:06:50.193Z,22.63
2022-08-30T17:09:17.913Z,22.48
2022-08-30T17:11:44.933Z,22.49
2022-08-30T17:14:11.721Z,22.51
2022-08-30T17:16:38.547Z,22.54
2022-08-30T17:19:08.448Z,22.52
2022-08-30T17:21:35.500Z,22.53
2022-08-30T17:24:03.194Z,22.37
2022-08-30T17:26:32.473Z,22.41
2022-08-30T17:28:59.094Z,22.37
2022-08-30T17:31:29.220Z,22.43
2022-08-30T17:34:01.198Z,22.32
2022-08-30T17:36:31.633Z,22.10
2022-08-30T17:38:58.254Z,21.94
2022-08-30T17:41:24.876Z,21.88
2022-08-30T17:43:51.550Z,21.84
2022-08-30T17:46:19.563Z,21.76
2022-08-30T17:48:46.459Z,21.68
2022-08-30T17:51:13.428Z,21.59
2022-08-30T17:53:40.084Z,21.64
2022-08-30T17:56:10.295Z,21.55
2022-08-30T17:58:37.008Z,21.56
2022-08-30T18:01:11.721Z,21.46
2022-08-30T18:03:39.497Z,21.31
2022-08-30T18:06:06.600Z,21.19
2022-08-30T18:08:33.897Z,21.14
2022-08-30T18:11:03.544Z,21.17
2022-08-30T18:13:33.178Z,21.16
2022-08-30T18:16:02.916Z,21.08
2022-08-30T18:18:31.004Z,20.96
2022-08-30T18:20:58.682Z,20.93
2022-08-30T18:23:26.975Z,20.82
2022-08-30T18:25:57.112Z,20.73
2022-08-30T18:28:23.980Z,20.57
2022-08-30T18:30:52.692Z,20.57
2022-08-30T18:33:20.106Z,20.53
2022-08-30T18:35:48.732Z,20.48
2022-08-30T18:38:15.496Z,20.41
2022-08-30T18:40:43.003Z,20.30
2022-08-30T18:43:10.676Z,20.20
2022-08-30T18:45:38.419Z,20.18
2022-08-30T18:48:06.037Z,20.12
2022-08-30T18:50:33.030Z,20.08
2022-08-30T18:53:00.772Z,20.00
2022-08-30T18:55:27.734Z,19.94
2022-08-30T18:57:54.316Z,19.91
2022-08-30T19:00:21.696Z,19.82
2022-08-30T19:02:48.246Z,19.86
2022-08-30T19:05:16.858Z,19.79
2022-08-30T19:07:44.020Z,19.73
2022-08-30T19:10:12.529Z,19.69
2022-08-30T19:12:39.602Z,19.61
2022-08-30T19:15:10.967Z,19.63
2022-08-30T19:17:40.271Z,19.54
2022-08-30T19:20:11.154Z,19.60
2022-08-30T19:23:06.345Z,19.55
2022-08-30T19:25:25.766Z,19.46
2022-08-30T19:27:52.504Z,19.45
2022-08-30T19:30:29.374Z,19.41
2022-08-30T19:32:56.977Z,19.37
2022-08-30T19:35:24.231Z,19.31
2022-08-30T19:37:50.996Z,19.23
2022-08-30T19:40:19.119Z,19.11
2022-08-30T19:42:46.781Z,19.07
2022-08-30T19:45:18.331Z,18.98
2022-08-30T19:47:45.790Z,18.87
2022-08-30T19:50:13.769Z,18.88
2022-08-30T19:52:40.492Z,18.89
2022-08-30T19:55:09.381Z,18.89
2022-08-30T19:57:36.288Z,18.90
2022-08-30T20:00:06.152Z,18.89
2022-08-30T20:02:33.547Z,18.89
2022-08-30T20:05:00.990Z,18.91
2022-08-30T20:07:31.070Z,18.83
2022-08-30T20:10:00.507Z,18.85
2022-08-30T20:12:27.138Z,18.85
2022-08-30T20:14:53.800Z,18.83
2022-08-30T20:17:25.320Z,18.78
2022-08-30T20:19:53.007Z,18.74
2022-08-30T20:22:19.583Z,18.70
2022-08-30T20:24:46.271Z,18.68
2022-08-30T20:27:13.099Z,18.71
2022-08-30T20:29:40.340Z,18.63
2022-08-30T20:32:07.704Z,18.50
2022-08-30T20:34:34.341Z,18.57
2022-08-30T20:37:00.982Z,18.42
2022-08-30T20:39:27.759Z,18.38
2022-08-30T20:41:54.474Z,18.39
2022-08-30T20:44:21.254Z,18.45
2022-08-30T20:46:50.579Z,18.42
2022-08-30T20:49:17.575Z,18.42
2022-08-30T20:51:44.256Z,18.41
2022-08-30T20:54:10.919Z,18.47
2022-08-30T20:56:37.598Z,18.43
2022-08-30T20:59:05.913Z,18.39
2022-08-30T21:01:35.722Z,18.27
2022-08-30T21:04:05.655Z,18.19
2022-08-30T21:06:37.529Z,18.10
2022-08-30T21:09:06.784Z,18.07
2022-08-30T21:11:34.846Z,18.01
2022-08-30T21:14:01.900Z,17.98
2022-08-30T21:16:30.039Z,18.00
2022-08-30T21:18:57.279Z,17.95
2022-08-30T21:21:25.798Z,17.90
2022-08-30T21:23:54.114Z,17.99
2022-08-30T21:26:20.995Z,17.88
2022-08-30T21:28:50.232Z,17.85
2022-08-30T21:31:20.455Z,17.82
2022-08-30T21:33:49.123Z,17.81
2022-08-30T21:36:35.332Z,17.80
2022-08-30T21:39:02.679Z,17.76
2022-08-30T21:41:31.597Z,17.79
2022-08-30T21:44:00.640Z,17.74
2022-08-30T21:46:28.835Z,17.74
2022-08-30T21:48:58.350Z,17.82
2022-08-30T21:51:25.245Z,17.90
2022-08-30T21:53:51.765Z,17.87
2022-08-30T21:56:22.173Z,17.78
2022-08-30T21:58:49.626Z,17.78
2022-08-30T22:01:17.690Z,17.74
2022-08-30T22:03:45.282Z,17.64
2022-08-30T22:06:14.169Z,17.74
2022-08-30T22:08:43.764Z,17.68
2022-08-30T22:11:12.528Z,17.61
2022-08-30T22:13:42.837Z,17.57
2022-08-30T22:16:12.028Z,17.56
2022-08-30T22:18:39.555Z,17.55
2022-08-30T22:21:08.398Z,17.54
2022-08-30T22:23:35.360Z,17.49
2022-08-30T22:26:02.611Z,17.51
2022-08-30T22:28:29.362Z,17.49
2022-08-30T22:30:56.049Z,17.43
2022-08-30T22:33:22.605Z,17.44
2022-08-30T22:35:49.220Z,17.46
2022-08-30T22:38:15.863Z,17.47
2022-08-30T22:40:50.562Z,17.43
2022-08-30T22:43:18.233Z,17.40
2022-08-30T22:45:45.012Z,17.31
2022-08-30T22:48:12.232Z,17.24
2022-08-30T22:50:39.100Z,17.23
2022-08-30T22:53:06.101Z,17.11
2022-08-30T22:55:32.651Z,17.00
2022-08-30T22:57:59.405Z,16.87
2022-08-30T23:00:26.126Z,16.79
2022-08-30T23:02:53.771Z,16.69
2022-08-30T23:05:22.784Z,16.65
2022-08-30T23:07:50.881Z,16.61
2022-08-30T23:10:18.042Z,16.59
2022-08-30T23:12:44.918Z,16.51
2022-08-30T23:15:14.239Z,16.40
2022-08-30T23:17:40.845Z,16.35
2022-08-30T23:20:08.460Z,16.33
2022-08-30T23:22:35.015Z,16.32
2022-08-30T23:25:20.290Z,16.26
2022-08-30T23:28:05.165Z,16.16
2022-08-30T23:30:50.098Z,16.09
2022-08-30T23:33:35.583Z,16.08
2022-08-30T23:36:29.364Z,16.03
2022-08-30T23:39:14.600Z,16.01
2022-08-30T23:42:00.114Z,15.97
2022-08-30T23:44:45.017Z,15.94
2022-08-30T23:47:30.452Z,15.90
2022-08-30T23:50:17.108Z,15.81
2022-08-30T23:53:01.960Z,15.78
2022-08-30T23:55:47.113Z,15.65
2022-08-30T23:58:32.103Z,15.70
